Time;durP1;ratioP1;P1;durP2;ratioP2;P2;SDS_P1;SDS_P2;PMS_P1;PMS_P2;Temp;Humidity;BMP_temperature;BMP_pressure;BME280_temperature;BME280_humidity;BME280_pressure;Samples;Min_cycle;Max_cycle;Signal;HPM_P1;HPM_P2
2022/07/09 00:00:25;;;;;;;19.47;8.43;;;16.70;99.90;;;;;;5033100;28;20053;-76
2022/07/09 00:02:51;;;;;;;20.67;9.07;;;16.70;99.90;;;;;;5027023;28;20123;-76
2022/07/09 00:05:17;;;;;;;16.47;7.97;;;16.70;99.90;;;;;;5026316;28;20132;-76
2022/07/09 00:07:42;;;;;;;25.33;9.30;;;16.70;99.90;;;;;;5015343;28;20500;-76
2022/07/09 00:10:08;;;;;;;17.90;8.40;;;16.60;99.90;;;;;;5013165;28;20061;-76
2022/07/09 00:12:35;;;;;;;14.53;7.53;;;16.60;99.90;;;;;;5014979;28;20711;-76
2022/07/09 00:15:00;;;;;;;14.10;7.43;;;16.60;99.90;;;;;;5049371;28;20128;-77
2022/07/09 00:17:29;;;;;;;22.40;8.73;;;16.60;99.90;;;;;;5032462;28;20140;-76
2022/07/09 00:19:55;;;;;;;19.00;8.57;;;16.60;99.90;;;;;;5050847;28;20059;-76
2022/07/09 00:22:21;;;;;;;23.13;8.93;;;16.50;99.90;;;;;;5052177;28;20033;-76
2022/07/09 00:24:47;;;;;;;17.57;6.83;;;16.50;99.90;;;;;;5035961;28;20041;-76
2022/07/09 00:27:12;;;;;;;14.87;6.80;;;16.50;99.90;;;;;;5035683;28;20111;-76
2022/07/09 00:29:38;;;;;;;19.70;8.47;;;16.40;99.90;;;;;;5052471;28;20076;-76
2022/07/09 00:32:05;;;;;;;20.43;7.97;;;16.40;99.90;;;;;;5052094;28;20120;-76
2022/07/09 00:34:33;;;;;;;17.57;7.67;;;16.40;99.90;;;;;;5052516;28;20132;-76
2022/07/09 00:36:59;;;;;;;13.77;7.53;;;16.30;99.90;;;;;;5017614;28;20110;-76
2022/07/09 00:39:25;;;;;;;17.30;7.63;;;16.30;99.90;;;;;;5052063;28;20049;-76
2022/07/09 00:42:00;;;;;;;19.90;8.37;;;16.20;99.90;;;;;;5035830;28;20106;-76
2022/07/09 00:44:26;;;;;;;25.20;9.10;;;16.20;99.90;;;;;;5019038;28;20048;-76
2022/07/09 00:46:52;;;;;;;17.00;7.60;;;16.20;99.90;;;;;;5052021;28;20136;-76
2022/07/09 00:49:17;;;;;;;22.83;9.07;;;16.20;99.90;;;;;;5051767;28;20044;-76
2022/07/09 00:51:45;;;;;;;17.47;8.40;;;16.20;99.90;;;;;;5050169;28;20049;-76
2022/07/09 00:54:11;;;;;;;16.93;7.97;;;16.20;99.90;;;;;;5051566;28;20048;-76
2022/07/09 00:56:36;;;;;;;13.63;7.70;;;16.20;99.90;;;;;;5035291;28;20128;-76
2022/07/09 00:59:07;;;;;;;21.77;8.30;;;16.20;99.90;;;;;;5035327;28;20396;-75
2022/07/09 01:01:34;;;;;;;16.13;8.53;;;16.20;99.90;;;;;;5035475;28;20473;-76
2022/07/09 01:04:01;;;;;;;20.40;9.30;;;16.20;99.90;;;;;;5028695;28;20115;-76
2022/07/09 01:06:26;;;;;;;18.20;8.50;;;16.10;99.90;;;;;;5051392;28;20045;-76
2022/07/09 01:08:53;;;;;;;20.80;9.10;;;16.10;99.90;;;;;;5050303;28;20095;-76
2022/07/09 01:11:19;;;;;;;14.97;8.00;;;16.10;99.90;;;;;;5050930;28;20056;-76
2022/07/09 01:13:45;;;;;;;15.23;8.10;;;16.10;99.90;;;;;;5051522;28;20534;-76
2022/07/09 01:16:13;;;;;;;14.67;6.93;;;16.10;99.90;;;;;;5051312;28;20049;-76
2022/07/09 01:18:38;;;;;;;10.03;5.53;;;16.10;99.90;;;;;;5034568;28;20091;-75
2022/07/09 01:21:06;;;;;;;13.00;7.23;;;16.10;99.90;;;;;;5033451;28;20518;-76
2022/07/09 01:23:31;;;;;;;16.40;7.60;;;15.90;99.90;;;;;;5034495;28;20045;-76
2022/07/09 01:25:58;;;;;;;19.03;8.93;;;15.90;99.90;;;;;;5018093;28;20041;-76
2022/07/09 01:28:24;;;;;;;18.97;9.17;;;15.90;99.90;;;;;;5051073;28;20500;-76
2022/07/09 01:30:49;;;;;;;16.57;8.93;;;15.80;99.90;;;;;;5034813;28;20094;-76
2022/07/09 01:33:15;;;;;;;19.03;8.97;;;15.90;99.90;;;;;;5051033;28;20045;-76
2022/07/09 01:35:41;;;;;;;25.83;11.03;;;15.90;99.90;;;;;;5041730;28;20044;-76
2022/07/09 01:38:08;;;;;;;18.80;9.60;;;15.90;99.90;;;;;;5034383;28;20053;-75
2022/07/09 01:40:34;;;;;;;17.67;9.43;;;16.00;99.90;;;;;;5051216;28;20463;-76
2022/07/09 01:42:59;;;;;;;16.37;10.03;;;16.00;99.90;;;;;;5051099;28;20050;-76
2022/07/09 01:45:25;;;;;;;23.20;9.10;;;16.00;99.90;;;;;;5050850;28;20053;-75
2022/07/09 01:47:51;;;;;;;17.83;10.13;;;16.00;99.90;;;;;;5050787;28;20053;-76
2022/07/09 01:50:17;;;;;;;18.43;10.27;;;16.10;99.90;;;;;;5049491;28;20095;-76
2022/07/09 01:52:42;;;;;;;19.57;10.43;;;16.10;99.90;;;;;;5050033;28;20459;-76
2022/07/09 01:55:10;;;;;;;18.93;10.20;;;16.10;99.90;;;;;;5034239;28;20171;-76
2022/07/09 01:57:35;;;;;;;18.00;9.83;;;16.10;99.90;;;;;;5034051;28;20616;-76
2022/07/09 02:00:03;;;;;;;23.00;10.63;;;16.20;99.90;;;;;;5051079;28;20048;-76
2022/07/09 02:02:38;;;;;;;21.20;11.13;;;16.20;99.90;;;;;;5034243;28;20530;-76
2022/07/09 02:05:05;;;;;;;18.87;11.97;;;16.20;99.90;;;;;;5038770;28;20048;-76
2022/07/09 02:07:30;;;;;;;21.27;11.40;;;16.20;99.90;;;;;;5038810;28;20056;-76
2022/07/09 02:09:56;;;;;;;21.70;12.67;;;16.30;99.90;;;;;;5029811;28;20045;-76
2022/07/09 02:12:23;;;;;;;24.73;12.37;;;16.30;99.90;;;;;;5030288;28;20451;-76
2022/07/09 02:14:49;;;;;;;26.97;12.40;;;16.30;99.90;;;;;;5029341;28;20045;-76
2022/07/09 02:17:15;;;;;;;22.53;12.17;;;16.30;99.90;;;;;;5035516;28;20103;-76
2022/07/09 02:19:41;;;;;;;19.13;11.60;;;16.30;99.90;;;;;;5043525;28;20040;-76
2022/07/09 02:22:06;;;;;;;28.27;12.50;;;16.20;99.90;;;;;;5002668;28;20047;-76
2022/07/09 02:24:32;;;;;;;19.27;11.17;;;16.20;99.90;;;;;;5030561;28;20041;-76
2022/07/09 02:26:58;;;;;;;20.13;10.17;;;16.20;99.90;;;;;;5030330;28;20055;-76
2022/07/09 02:29:25;;;;;;;21.70;10.53;;;16.20;99.90;;;;;;5030533;28;20037;-76
2022/07/09 02:31:51;;;;;;;21.60;11.20;;;16.20;99.90;;;;;;5013934;28;20049;-75
2022/07/09 02:34:17;;;;;;;24.77;12.60;;;16.20;99.90;;;;;;5041125;28;20056;-75
2022/07/09 02:36:42;;;;;;;20.47;11.00;;;16.20;99.90;;;;;;5016829;28;20098;-75
2022/07/09 02:39:08;;;;;;;19.17;10.87;;;16.20;99.90;;;;;;5050495;28;20102;-76
2022/07/09 02:41:34;;;;;;;24.20;11.87;;;16.20;99.90;;;;;;5050230;28;20049;-76
2022/07/09 02:44:00;;;;;;;19.63;10.23;;;16.20;99.90;;;;;;5033530;28;20037;-76
2022/07/09 02:46:27;;;;;;;19.50;10.70;;;16.20;99.90;;;;;;5033245;28;20053;-76
2022/07/09 02:48:52;;;;;;;17.23;9.90;;;16.10;99.90;;;;;;5033630;28;20131;-76
2022/07/09 02:51:18;;;;;;;19.00;10.30;;;16.10;99.90;;;;;;5040840;28;20124;-76
2022/07/09 02:53:44;;;;;;;21.97;10.77;;;16.10;99.90;;;;;;5049716;28;20116;-76
2022/07/09 02:56:10;;;;;;;19.07;9.60;;;16.10;99.90;;;;;;5049853;28;20128;-76
2022/07/09 02:58:35;;;;;;;20.90;9.93;;;16.10;99.90;;;;;;5033203;28;20511;-76
2022/07/09 03:01:01;;;;;;;15.57;10.17;;;16.10;99.90;;;;;;5049622;28;20096;-75
2022/07/09 03:03:28;;;;;;;22.20;10.70;;;16.20;99.90;;;;;;5032602;28;20033;-76
2022/07/09 03:05:54;;;;;;;15.37;9.37;;;16.20;99.90;;;;;;5026331;28;20397;-76
2022/07/09 03:08:21;;;;;;;21.27;10.33;;;16.20;99.90;;;;;;5016798;28;20047;-76
2022/07/09 03:10:47;;;;;;;21.03;9.77;;;16.20;99.90;;;;;;5033158;28;20567;-76
2022/07/09 03:13:13;;;;;;;17.47;9.47;;;16.20;99.90;;;;;;5033189;28;20041;-76
2022/07/09 03:15:39;;;;;;;21.23;9.00;;;16.30;99.90;;;;;;5047535;28;20056;-76
2022/07/09 03:18:07;;;;;;;16.43;9.20;;;16.30;99.90;;;;;;5050673;28;20032;-76
2022/07/09 03:20:35;;;;;;;19.43;8.60;;;16.30;99.90;;;;;;5035052;28;20076;-76
2022/07/09 03:23:01;;;;;;;15.80;8.80;;;16.30;99.90;;;;;;5016842;28;20049;-76
2022/07/09 03:25:27;;;;;;;16.63;9.27;;;16.30;99.90;;;;;;5016587;28;20087;-76
2022/07/09 03:27:55;;;;;;;18.13;9.00;;;16.40;99.90;;;;;;5033125;28;20436;-76
2022/07/09 03:30:21;;;;;;;18.10;8.70;;;16.30;99.90;;;;;;5033258;28;20059;-76
2022/07/09 03:32:46;;;;;;;15.17;9.03;;;16.30;99.90;;;;;;5023356;28;20036;-76
2022/07/09 03:35:12;;;;;;;16.17;9.23;;;16.30;99.90;;;;;;5021412;28;20591;-76
2022/07/09 03:37:39;;;;;;;20.00;9.40;;;16.20;99.90;;;;;;5056418;28;20044;-76
2022/07/09 03:40:06;;;;;;;20.80;9.97;;;16.20;99.90;;;;;;5040122;28;20533;-76
2022/07/09 03:42:32;;;;;;;15.87;9.37;;;16.10;99.90;;;;;;5056596;28;20047;-76
2022/07/09 03:44:58;;;;;;;22.50;8.90;;;16.10;99.90;;;;;;5056839;28;20127;-76
2022/07/09 03:47:23;;;;;;;18.13;9.03;;;16.10;99.90;;;;;;5052686;28;20056;-76
2022/07/09 03:49:49;;;;;;;23.60;10.27;;;16.10;99.90;;;;;;5027420;28;20129;-75
2022/07/09 03:52:15;;;;;;;15.20;9.20;;;16.10;99.90;;;;;;5054576;28;20047;-75
2022/07/09 03:54:43;;;;;;;18.50;9.83;;;16.00;99.90;;;;;;5056310;28;20052;-76
2022/07/09 03:57:09;;;;;;;15.73;9.37;;;16.00;99.90;;;;;;5037516;28;20056;-76
2022/07/09 03:59:35;;;;;;;19.70;10.07;;;16.00;99.90;;;;;;5048743;28;20455;-76
2022/07/09 04:02:01;;;;;;;19.47;9.73;;;16.00;99.90;;;;;;5056357;28;20558;-76
2022/07/09 04:04:26;;;;;;;16.87;10.10;;;15.90;99.90;;;;;;5048485;28;20120;-75
2022/07/09 04:06:54;;;;;;;26.20;11.87;;;15.90;99.90;;;;;;5025684;28;20447;-76
2022/07/09 04:09:20;;;;;;;21.17;11.60;;;16.00;99.90;;;;;;5054916;28;20127;-76
2022/07/09 04:11:48;;;;;;;22.33;10.63;;;15.90;99.90;;;;;;5056313;28;20060;-76
2022/07/09 04:14:14;;;;;;;21.33;10.53;;;15.90;99.90;;;;;;5056049;28;20141;-75
2022/07/09 04:16:40;;;;;;;19.40;11.73;;;16.00;99.90;;;;;;5055786;28;20041;-76
2022/07/09 04:19:09;;;;;;;19.60;11.23;;;16.00;99.90;;;;;;5055726;28;20174;-78
2022/07/09 04:21:34;;;;;;;26.27;11.77;;;16.00;99.90;;;;;;5041253;28;20063;-77
2022/07/09 04:24:00;;;;;;;21.97;11.60;;;16.00;99.90;;;;;;5023341;28;20099;-78
2022/07/09 04:26:26;;;;;;;22.43;11.93;;;16.00;99.90;;;;;;5035036;28;20055;-78
2022/07/09 04:28:53;;;;;;;22.73;10.53;;;16.10;99.90;;;;;;5019173;28;20052;-78
2022/07/09 04:31:21;;;;;;;22.50;11.43;;;16.10;99.90;;;;;;5019419;28;20049;-79
2022/07/09 04:33:46;;;;;;;22.70;12.47;;;16.10;99.90;;;;;;5035463;28;20132;-78
2022/07/09 04:36:12;;;;;;;21.67;12.20;;;16.10;99.90;;;;;;5019415;28;20129;-79
2022/07/09 04:38:38;;;;;;;20.37;11.50;;;16.20;99.90;;;;;;5030558;28;20036;-78
2022/07/09 04:41:04;;;;;;;23.43;12.37;;;16.30;99.90;;;;;;5022456;28;20063;-77
2022/07/09 04:43:30;;;;;;;21.47;13.10;;;16.30;99.90;;;;;;5055609;28;20048;-77
2022/07/09 04:45:58;;;;;;;20.70;11.73;;;16.30;99.90;;;;;;5054353;28;20045;-78
2022/07/09 04:48:24;;;;;;;21.30;11.80;;;16.30;99.90;;;;;;5038831;28;20052;-77
2022/07/09 04:50:50;;;;;;;17.07;10.60;;;16.30;99.90;;;;;;5055284;28;20094;-78
2022/07/09 04:53:16;;;;;;;20.00;10.77;;;16.40;99.90;;;;;;5030185;28;20044;-78
2022/07/09 04:55:42;;;;;;;18.67;11.87;;;16.50;99.90;;;;;;5032326;28;20040;-77
2022/07/09 04:58:08;;;;;;;25.23;10.87;;;16.50;99.90;;;;;;5038564;28;20041;-79
2022/07/09 05:00:34;;;;;;;20.23;11.63;;;16.50;99.90;;;;;;5055762;28;20404;-79
2022/07/09 05:03:01;;;;;;;29.20;13.27;;;16.50;99.90;;;;;;5038301;28;20043;-78
2022/07/09 05:05:27;;;;;;;22.80;12.77;;;16.60;99.90;;;;;;5055358;28;20049;-79
2022/07/09 05:07:53;;;;;;;25.00;12.67;;;16.60;99.90;;;;;;5036323;28;20147;-77
2022/07/09 05:10:19;;;;;;;29.80;13.37;;;16.60;99.90;;;;;;5036754;28;20053;-78
2022/07/09 05:12:45;;;;;;;25.03;13.23;;;16.70;99.90;;;;;;5054794;28;20045;-78
2022/07/09 05:15:11;;;;;;;22.33;12.90;;;16.70;99.90;;;;;;5038265;28;20049;-78
2022/07/09 05:17:37;;;;;;;21.90;13.30;;;16.80;99.90;;;;;;5054675;28;20423;-78
2022/07/09 05:20:06;;;;;;;22.63;11.57;;;16.80;99.90;;;;;;5038259;28;20404;-78
2022/07/09 05:22:34;;;;;;;21.83;12.60;;;16.90;99.90;;;;;;5020661;28;20053;-79
2022/07/09 05:25:00;;;;;;;21.33;12.90;;;16.90;99.90;;;;;;5032727;28;20067;-79
2022/07/09 05:27:26;;;;;;;23.20;12.10;;;17.00;99.90;;;;;;5026278;28;20499;-79
2022/07/09 05:29:52;;;;;;;24.77;13.83;;;17.00;99.90;;;;;;5033375;28;20053;-78
2022/07/09 05:32:18;;;;;;;20.23;11.93;;;17.10;99.90;;;;;;5000491;28;20045;-78
2022/07/09 05:34:44;;;;;;;20.07;12.13;;;17.20;99.90;;;;;;5033331;28;20037;-78
2022/07/09 05:37:11;;;;;;;22.23;12.40;;;17.20;99.90;;;;;;5034647;28;20045;-77
2022/07/09 05:39:36;;;;;;;22.07;12.63;;;17.30;99.90;;;;;;5035468;28;20049;-79
2022/07/09 05:42:03;;;;;;;17.40;10.67;;;17.30;99.90;;;;;;5038297;28;20040;-78
2022/07/09 05:44:28;;;;;;;20.90;12.00;;;17.30;99.90;;;;;;5005208;28;20044;-80
2022/07/09 05:46:54;;;;;;;13.33;9.77;;;17.40;99.90;;;;;;5020944;28;20479;-78
2022/07/09 05:49:20;;;;;;;18.17;11.47;;;17.40;99.90;;;;;;5038263;28;20055;-79
2022/07/09 05:51:46;;;;;;;17.87;10.70;;;17.50;99.90;;;;;;5054469;28;20072;-78
2022/07/09 05:54:13;;;;;;;18.93;10.67;;;17.60;99.90;;;;;;5054641;28;20083;-79
2022/07/09 05:56:39;;;;;;;18.23;11.00;;;17.60;99.90;;;;;;5037505;28;20054;-79
2022/07/09 05:59:05;;;;;;;13.53;9.57;;;17.70;99.90;;;;;;5040835;28;20120;-79
2022/07/09 06:01:31;;;;;;;18.43;9.63;;;17.70;99.90;;;;;;5037641;28;20052;-78
2022/07/09 06:03:56;;;;;;;14.20;9.70;;;17.80;99.90;;;;;;5037514;28;20094;-79
2022/07/09 06:06:22;;;;;;;16.00;9.53;;;17.90;99.90;;;;;;5054590;28;20059;-79
2022/07/09 06:08:48;;;;;;;13.77;9.07;;;17.90;99.90;;;;;;5005593;28;20570;-79
2022/07/09 06:11:15;;;;;;;13.33;8.70;;;18.00;99.90;;;;;;4998061;28;20103;-79
2022/07/09 06:13:41;;;;;;;12.77;8.77;;;18.00;99.90;;;;;;5019673;28;20069;-80
2022/07/09 06:16:07;;;;;;;11.13;7.73;;;18.10;99.90;;;;;;5026132;28;20090;-79
2022/07/09 06:18:33;;;;;;;10.93;8.37;;;18.10;99.90;;;;;;5053959;28;20122;-78
2022/07/09 06:21:00;;;;;;;15.13;8.30;;;18.20;99.90;;;;;;5049300;28;20049;-79
2022/07/09 06:23:26;;;;;;;11.17;7.37;;;18.30;99.90;;;;;;5033876;28;20047;-79
2022/07/09 06:25:52;;;;;;;10.53;6.80;;;18.30;99.90;;;;;;5034435;28;20041;-79
2022/07/09 06:28:19;;;;;;;10.73;6.67;;;18.40;99.90;;;;;;5034163;28;20041;-79
2022/07/09 06:30:45;;;;;;;12.20;7.30;;;18.40;99.90;;;;;;5037958;28;20407;-78
2022/07/09 06:33:10;;;;;;;12.53;6.73;;;18.50;99.90;;;;;;5045630;28;20047;-79
2022/07/09 06:35:36;;;;;;;13.80;7.23;;;18.50;99.90;;;;;;5054068;28;20052;-79
2022/07/09 06:38:02;;;;;;;9.27;6.33;;;18.60;99.90;;;;;;5053837;28;20044;-79
2022/07/09 06:40:27;;;;;;;12.77;6.47;;;18.60;99.90;;;;;;5037139;28;20048;-78
2022/07/09 06:42:53;;;;;;;11.27;6.80;;;18.70;99.90;;;;;;5053407;28;20040;-79
2022/07/09 06:45:24;;;;;;;10.47;6.80;;;18.70;99.90;;;;;;5021024;28;20044;-79
2022/07/09 06:47:50;;;;;;;9.80;6.40;;;18.70;99.90;;;;;;5024637;28;20045;-80
2022/07/09 06:50:16;;;;;;;10.63;6.37;;;18.70;99.90;;;;;;5022306;28;20068;-79
2022/07/09 06:52:42;;;;;;;9.87;5.97;;;18.80;99.90;;;;;;5033736;28;20044;-79
2022/07/09 06:55:08;;;;;;;7.83;5.53;;;18.80;99.90;;;;;;5017014;28;20045;-79
2022/07/09 06:57:34;;;;;;;8.67;5.57;;;18.80;99.90;;;;;;5017648;28;20399;-77
2022/07/09 07:00:01;;;;;;;8.80;5.63;;;18.70;99.90;;;;;;5033728;28;20064;-80
2022/07/09 07:02:28;;;;;;;7.77;5.07;;;18.70;99.90;;;;;;5035878;28;20040;-79
2022/07/09 07:04:54;;;;;;;12.90;6.23;;;18.70;99.90;;;;;;5044214;28;20052;-78
2022/07/09 07:07:20;;;;;;;10.97;5.00;;;18.70;99.90;;;;;;5035915;28;20140;-79
2022/07/09 07:09:45;;;;;;;11.20;5.30;;;18.80;99.90;;;;;;5030550;28;20514;-79
2022/07/09 07:12:11;;;;;;;13.37;6.27;;;18.80;99.90;;;;;;5041355;28;20072;-78
2022/07/09 07:14:37;;;;;;;6.33;4.60;;;18.90;99.90;;;;;;5036484;28;20049;-80
2022/07/09 07:17:04;;;;;;;8.93;4.37;;;19.00;99.90;;;;;;5032813;28;20079;-80
2022/07/09 07:19:31;;;;;;;12.53;4.90;;;19.00;99.90;;;;;;5044449;28;20118;-79
2022/07/09 07:21:56;;;;;;;9.13;5.07;;;19.00;99.90;;;;;;5050272;28;20045;-79
2022/07/09 07:24:22;;;;;;;9.00;5.23;;;19.10;99.90;;;;;;5036440;28;20045;-79
2022/07/09 07:26:48;;;;;;;12.10;5.20;;;19.20;99.90;;;;;;5016819;28;20467;-78
2022/07/09 07:29:14;;;;;;;7.40;5.07;;;19.30;99.90;;;;;;5038921;28;20512;-79
2022/07/09 07:31:39;;;;;;;11.30;4.97;;;19.30;99.90;;;;;;5037161;28;20427;-79
2022/07/09 07:34:05;;;;;;;6.10;4.10;;;19.30;99.90;;;;;;5053322;28;20045;-79
2022/07/09 07:36:34;;;;;;;10.47;5.13;;;19.40;99.90;;;;;;5035130;28;20592;-79
2022/07/09 07:39:00;;;;;;;10.17;4.73;;;19.30;99.90;;;;;;5034353;28;20075;-80
2022/07/09 07:41:25;;;;;;;9.10;4.53;;;19.30;99.90;;;;;;5034002;28;20049;-79
2022/07/09 07:43:51;;;;;;;9.80;4.70;;;19.30;99.90;;;;;;5051680;28;20041;-78
2022/07/09 07:46:17;;;;;;;8.83;4.03;;;19.20;99.90;;;;;;5034295;28;20883;-79
2022/07/09 07:48:43;;;;;;;6.47;3.80;;;19.30;99.90;;;;;;5067624;28;20044;-79
2022/07/09 07:51:09;;;;;;;7.57;3.67;;;19.30;99.90;;;;;;5031549;28;20411;-79
2022/07/09 07:53:36;;;;;;;6.13;3.77;;;19.30;99.90;;;;;;5049523;28;20041;-79
2022/07/09 07:56:03;;;;;;;8.40;3.83;;;19.30;99.90;;;;;;5035284;28;20040;-79
2022/07/09 07:58:28;;;;;;;7.07;4.10;;;19.30;99.90;;;;;;5050991;28;20076;-78
2022/07/09 08:00:54;;;;;;;7.50;3.73;;;19.40;99.90;;;;;;5035435;28;20064;-78
2022/07/09 08:03:20;;;;;;;6.13;3.27;;;19.40;99.90;;;;;;5035228;28;20087;-77
2022/07/09 08:05:46;;;;;;;6.90;3.53;;;19.40;99.90;;;;;;5051845;28;20539;-79
2022/07/09 08:08:12;;;;;;;7.53;3.47;;;19.40;99.90;;;;;;5033793;28;20136;-80
2022/07/09 08:10:39;;;;;;;8.63;3.73;;;19.40;99.90;;;;;;5023935;28;20067;-79
2022/07/09 08:13:05;;;;;;;6.20;3.17;;;19.50;99.90;;;;;;5034225;28;20051;-79
2022/07/09 08:15:31;;;;;;;6.73;3.20;;;19.60;99.90;;;;;;5034234;28;20037;-82
2022/07/09 08:17:57;;;;;;;4.00;2.80;;;19.80;99.90;;;;;;5033013;28;20476;-81
2022/07/09 08:20:23;;;;;;;9.37;3.10;;;20.10;99.90;;;;;;5016274;28;20542;-80
2022/07/09 08:22:49;;;;;;;7.63;3.10;;;20.40;99.90;;;;;;5049400;28;20060;-80
2022/07/09 08:25:15;;;;;;;7.73;3.00;;;20.60;99.90;;;;;;5032845;28;20049;-79
2022/07/09 08:27:42;;;;;;;5.43;2.70;;;20.90;99.90;;;;;;5051019;28;20041;-79
2022/07/09 08:30:10;;;;;;;3.87;2.20;;;21.00;99.90;;;;;;5067004;28;20045;-80
2022/07/09 08:32:37;;;;;;;4.07;2.40;;;21.00;99.90;;;;;;5050400;28;20110;-79
2022/07/09 08:35:03;;;;;;;6.73;2.57;;;21.00;99.90;;;;;;5034746;28;20037;-78
2022/07/09 08:37:29;;;;;;;5.45;2.25;;;21.00;99.90;;;;;;5051229;28;20045;-79
2022/07/09 08:39:55;;;;;;;4.60;2.03;;;21.00;99.90;;;;;;5018864;28;20531;-78
2022/07/09 08:42:21;;;;;;;3.72;1.92;;;21.10;99.90;;;;;;5050783;28;20071;-79
2022/07/09 08:44:48;;;;;;;4.90;2.00;;;21.20;99.90;;;;;;5051821;28;20033;-79
2022/07/09 08:47:15;;;;;;;4.65;2.00;;;21.20;99.90;;;;;;5034763;28;20127;-80
2022/07/09 08:49:41;;;;;;;7.68;2.28;;;21.20;99.90;;;;;;5033663;28;20041;-78
2022/07/09 08:52:08;;;;;;;3.50;1.80;;;21.20;99.90;;;;;;5035358;28;20064;-78
2022/07/09 08:54:36;;;;;;;4.57;1.80;;;21.30;99.90;;;;;;5035789;28;20048;-80
2022/07/09 08:57:02;;;;;;;5.93;2.30;;;21.30;99.90;;;;;;5034153;28;20088;-80
2022/07/09 08:59:28;;;;;;;6.43;2.20;;;21.50;99.90;;;;;;5043641;28;20385;-81
2022/07/09 09:01:55;;;;;;;6.25;2.15;;;21.50;99.90;;;;;;5039473;28;20045;-80
2022/07/09 09:04:22;;;;;;;3.85;2.17;;;21.50;99.90;;;;;;5016071;28;20044;-80
2022/07/09 09:06:48;;;;;;;3.80;1.70;;;21.60;99.90;;;;;;5031936;28;20059;-79
2022/07/09 09:09:19;;;;;;;4.50;1.50;;;21.60;99.90;;;;;;5033720;28;20040;-77
2022/07/09 09:11:48;;;;;;;3.35;1.67;;;21.60;99.90;;;;;;5050148;28;20166;-79
2022/07/09 09:14:19;;;;;;;3.67;1.52;;;21.70;99.90;;;;;;5034331;28;20431;-79
2022/07/09 09:16:45;;;;;;;4.00;1.65;;;21.80;99.90;;;;;;5050547;28;20044;-80
2022/07/09 09:19:13;;;;;;;4.93;1.45;;;21.90;99.90;;;;;;5045152;28;20040;-76
2022/07/09 09:21:38;;;;;;;2.97;1.55;;;21.90;99.90;;;;;;5049547;28;20775;-79
2022/07/09 09:24:05;;;;;;;3.88;1.70;;;22.00;99.90;;;;;;5033418;28;20051;-77
2022/07/09 09:26:33;;;;;;;2.63;1.50;;;21.90;99.90;;;;;;5017100;28;20044;-78
2022/07/09 09:29:03;;;;;;;3.22;1.42;;;21.90;99.90;;;;;;5016565;28;20047;-78
2022/07/09 09:31:33;;;;;;;6.50;1.50;;;22.00;99.90;;;;;;5031043;28;20442;-76
2022/07/09 09:34:12;;;;;;;4.10;1.50;;;22.30;99.90;;;;;;5047937;28;20511;-79
2022/07/09 09:36:39;;;;;;;3.72;1.50;;;22.30;99.90;;;;;;5042520;28;20128;-78
2022/07/09 09:39:14;;;;;;;5.82;1.73;;;22.20;99.90;;;;;;5009595;28;20041;-78
2022/07/09 09:41:41;;;;;;;2.60;1.70;;;22.20;99.90;;;;;;5032592;28;20064;-77
2022/07/09 09:44:09;;;;;;;4.45;1.60;;;22.20;99.90;;;;;;5048027;28;20041;-76
2022/07/09 09:46:37;;;;;;;5.97;1.50;;;22.20;99.90;;;;;;5034117;28;20047;-78
2022/07/09 09:49:06;;;;;;;4.72;1.10;;;22.30;99.90;;;;;;5049762;28;20037;-77
2022/07/09 09:51:36;;;;;;;2.15;1.15;;;22.20;99.90;;;;;;5050630;28;20041;-76
2022/07/09 09:54:02;;;;;;;7.75;1.50;;;22.10;99.90;;;;;;5034431;28;20601;-76
2022/07/09 09:56:28;;;;;;;5.90;1.20;;;22.30;99.90;;;;;;5050546;28;20045;-77
2022/07/09 09:58:55;;;;;;;3.35;0.95;;;22.60;99.90;;;;;;5045681;28;20045;-78
2022/07/09 10:01:21;;;;;;;7.28;1.50;;;22.80;99.90;;;;;;5052202;28;20397;-77
2022/07/09 10:03:48;;;;;;;5.07;1.70;;;22.80;99.90;;;;;;5046737;28;20033;-78
2022/07/09 10:06:14;;;;;;;4.22;1.40;;;22.80;99.90;;;;;;5016088;28;20045;-76
2022/07/09 10:08:41;;;;;;;4.72;1.25;;;23.10;99.90;;;;;;5049912;28;20072;-78
2022/07/09 10:11:07;;;;;;;4.55;1.30;;;23.50;99.90;;;;;;5033934;28;20136;-78
2022/07/09 10:13:33;;;;;;;5.88;1.10;;;23.60;99.90;;;;;;5026040;28;20059;-77
2022/07/09 10:15:59;;;;;;;3.20;1.10;;;23.40;99.90;;;;;;5033522;28;20052;-77
2022/07/09 10:18:25;;;;;;;4.00;1.13;;;23.00;99.90;;;;;;5050400;28;20048;-76
2022/07/09 10:20:56;;;;;;;6.38;1.20;;;22.60;99.90;;;;;;5031640;28;20436;-79
2022/07/09 10:23:23;;;;;;;5.40;1.40;;;22.30;99.90;;;;;;5031980;28;20071;-76
2022/07/09 10:25:57;;;;;;;5.53;1.42;;;22.10;99.90;;;;;;5048686;28;20049;-76
2022/07/09 10:28:26;;;;;;;3.28;1.30;;;22.30;99.90;;;;;;5048541;28;20052;-76
2022/07/09 10:30:53;;;;;;;3.72;1.20;;;22.70;99.90;;;;;;5041401;28;20155;-77
2022/07/09 10:33:22;;;;;;;5.47;1.33;;;23.20;99.90;;;;;;5032634;28;20416;-76
2022/07/09 10:35:51;;;;;;;4.65;1.30;;;23.20;99.90;;;;;;5045752;28;20040;-77
2022/07/09 10:38:17;;;;;;;6.20;1.30;;;23.00;99.90;;;;;;5048302;28;20123;-77
2022/07/09 10:40:44;;;;;;;3.92;1.10;;;22.80;99.90;;;;;;5032137;28;20060;-78
2022/07/09 10:43:12;;;;;;;3.72;1.50;;;22.60;99.90;;;;;;5047160;28;20057;-75
2022/07/09 10:45:40;;;;;;;4.18;1.38;;;22.60;99.90;;;;;;5026690;28;20045;-78
2022/07/09 10:48:09;;;;;;;4.57;1.30;;;23.10;99.90;;;;;;5047070;28;20048;-79
2022/07/09 10:50:38;;;;;;;5.30;1.30;;;23.70;99.90;;;;;;5033056;28;20045;-78
2022/07/09 10:53:04;;;;;;;4.68;1.40;;;24.30;99.90;;;;;;5033134;28;20047;-76
2022/07/09 10:55:31;;;;;;;5.15;1.63;;;24.50;99.90;;;;;;5049517;28;20049;-80
2022/07/09 10:57:57;;;;;;;5.90;1.27;;;24.30;99.90;;;;;;5033256;28;20053;-77
2022/07/09 11:00:26;;;;;;;3.53;1.10;;;23.80;99.90;;;;;;5049859;28;20045;-76
2022/07/09 11:02:57;;;;;;;5.85;1.42;;;23.40;99.90;;;;;;5008112;28;20122;-78
2022/07/09 11:05:24;;;;;;;4.18;1.40;;;23.00;99.90;;;;;;5032883;28;20041;-77
2022/07/09 11:08:01;;;;;;;5.22;1.50;;;23.00;99.90;;;;;;5017064;28;20139;-78
2022/07/09 11:10:28;;;;;;;3.88;1.05;;;23.30;99.90;;;;;;5032790;28;20049;-77
2022/07/09 11:12:55;;;;;;;6.15;1.27;;;23.70;99.90;;;;;;5049871;28;20118;-77
2022/07/09 11:15:21;;;;;;;4.10;1.08;;;24.00;99.90;;;;;;5010763;28;20147;-80
2022/07/09 11:18:00;;;;;;;3.85;1.40;;;23.90;99.90;;;;;;5026917;28;20041;-79
2022/07/09 11:20:26;;;;;;;5.70;1.50;;;23.70;99.90;;;;;;5046211;28;20055;-77
2022/07/09 11:22:56;;;;;;;6.85;1.63;;;23.50;99.90;;;;;;5028715;28;20480;-78
2022/07/09 11:25:22;;;;;;;7.25;2.30;;;23.20;99.90;;;;;;5033115;28;20135;-76
2022/07/09 11:27:48;;;;;;;4.65;1.30;;;22.90;99.90;;;;;;5048461;28;21925;-78
2022/07/09 11:30:14;;;;;;;2.90;1.02;;;22.90;99.90;;;;;;5046961;28;20037;-78
2022/07/09 11:32:41;;;;;;;7.20;1.70;;;23.10;99.90;;;;;;5048257;28;20033;-77
2022/07/09 11:35:08;;;;;;;6.22;1.52;;;23.40;99.90;;;;;;5011833;28;20128;-76
2022/07/09 11:37:34;;;;;;;7.28;1.73;;;23.50;99.90;;;;;;5030967;28;20049;-77
2022/07/09 11:40:00;;;;;;;6.90;1.80;;;23.60;99.90;;;;;;5027896;28;20462;-78
2022/07/09 11:42:26;;;;;;;6.10;1.58;;;23.50;99.90;;;;;;5047038;28;20083;-77
2022/07/09 11:44:58;;;;;;;5.38;1.52;;;23.60;99.90;;;;;;5047564;28;20116;-78
2022/07/09 11:47:32;;;;;;;8.40;2.00;;;23.60;99.90;;;;;;5031593;28;20118;-75
2022/07/09 11:50:05;;;;;;;7.95;1.67;;;23.90;99.90;;;;;;5011811;28;20052;-77
2022/07/09 11:52:32;;;;;;;10.82;2.17;;;24.00;99.90;;;;;;5062696;28;20053;-79
2022/07/09 11:55:00;;;;;;;7.32;1.50;;;24.10;99.90;;;;;;5032484;28;20045;-78
2022/07/09 11:57:26;;;;;;;9.48;2.03;;;24.00;99.90;;;;;;5051475;28;20040;-79
2022/07/09 11:59:52;;;;;;;9.07;2.28;;;23.90;99.90;;;;;;5033510;28;20032;-77
2022/07/09 12:02:26;;;;;;;12.25;1.90;;;24.10;99.90;;;;;;5051320;28;20055;-78
2022/07/09 12:04:51;;;;;;;7.38;1.90;;;24.30;99.90;;;;;;5049393;28;20056;-77
2022/07/09 12:07:17;;;;;;;8.85;2.05;;;24.60;99.90;;;;;;5034078;28;20107;-78
2022/07/09 12:09:45;;;;;;;7.40;1.60;;;24.80;99.90;;;;;;5032652;28;20462;-76
2022/07/09 12:12:10;;;;;;;7.43;1.83;;;25.10;99.90;;;;;;5011422;28;20432;-76
2022/07/09 12:14:36;;;;;;;4.97;1.38;;;25.20;99.90;;;;;;5029327;28;20051;-77
2022/07/09 12:17:03;;;;;;;8.35;1.58;;;25.30;99.90;;;;;;5033551;28;20041;-78
2022/07/09 12:19:29;;;;;;;4.93;1.20;;;25.40;99.90;;;;;;5033123;28;20428;-78
2022/07/09 12:21:56;;;;;;;5.07;1.52;;;25.50;99.60;;;;;;5035040;28;20040;-79
2022/07/09 12:24:21;;;;;;;5.63;1.15;;;25.50;98.60;;;;;;5035320;28;20416;-76
2022/07/09 12:26:48;;;;;;;3.33;1.20;;;25.50;98.20;;;;;;5052394;28;20048;-77
2022/07/09 12:29:14;;;;;;;8.07;1.63;;;25.50;97.90;;;;;;5052360;28;20098;-77
2022/07/09 12:31:40;;;;;;;3.25;1.15;;;25.60;97.10;;;;;;5052419;28;20049;-77
2022/07/09 12:34:06;;;;;;;6.05;1.00;;;25.50;96.60;;;;;;5035827;28;20052;-77